sensor_id;sensor_type;location;lat;lon;timestamp;P1;durP1;ratioP1;P2;durP2;ratioP2
10603;SDS011;5349;41.554;23.274;2023-04-07T00:00:22;14.17;;;10.57;;
10603;SDS011;5349;41.554;23.274;2023-04-07T00:02:50;15.83;;;11.87;;
10603;SDS011;5349;41.554;23.274;2023-04-07T00:05:17;15.97;;;11.40;;
10603;SDS011;5349;41.554;23.274;2023-04-07T00:07:44;13.47;;;10.57;;
10603;SDS011;5349;41.554;23.274;2023-04-07T00:10:12;12.90;;;9.63;;
10603;SDS011;5349;41.554;23.274;2023-04-07T00:12:39;12.60;;;10.30;;
10603;SDS011;5349;41.554;23.274;2023-04-07T00:15:07;13.03;;;10.03;;
10603;SDS011;5349;41.554;23.274;2023-04-07T00:17:34;10.70;;;8.57;;
10603;SDS011;5349;41.554;23.274;2023-04-07T00:20:01;14.17;;;10.60;;
10603;SDS011;5349;41.554;23.274;2023-04-07T00:22:28;12.63;;;10.00;;
10603;SDS011;5349;41.554;23.274;2023-04-07T00:24:55;16.17;;;10.50;;
10603;SDS011;5349;41.554;23.274;2023-04-07T00:27:23;12.70;;;10.30;;
10603;SDS011;5349;41.554;23.274;2023-04-07T00:29:50;18.23;;;10.53;;
10603;SDS011;5349;41.554;23.274;2023-04-07T00:32:19;12.03;;;9.67;;
10603;SDS011;5349;41.554;23.274;2023-04-07T00:34:46;11.40;;;10.20;;
10603;SDS011;5349;41.554;23.274;2023-04-07T00:37:13;15.03;;;10.93;;
10603;SDS011;5349;41.554;23.274;2023-04-07T00:39:39;14.60;;;11.20;;
10603;SDS011;5349;41.554;23.274;2023-04-07T00:42:06;13.87;;;10.30;;
10603;SDS011;5349;41.554;23.274;2023-04-07T00:44:34;13.30;;;10.67;;
10603;SDS011;5349;41.554;23.274;2023-04-07T00:47:01;13.70;;;10.57;;
10603;SDS011;5349;41.554;23.274;2023-04-07T00:49:28;11.50;;;9.73;;
10603;SDS011;5349;41.554;23.274;2023-04-07T00:51:56;13.13;;;10.40;;
10603;SDS011;5349;41.554;23.274;2023-04-07T00:54:23;14.30;;;10.73;;
10603;SDS011;5349;41.554;23.274;2023-04-07T00:56:50;12.27;;;9.83;;
10603;SDS011;5349;41.554;23.274;2023-04-07T00:59:18;12.83;;;10.67;;
10603;SDS011;5349;41.554;23.274;2023-04-07T01:01:49;12.47;;;10.87;;
10603;SDS011;5349;41.554;23.274;2023-04-07T01:04:25;12.47;;;10.60;;
10603;SDS011;5349;41.554;23.274;2023-04-07T01:07:00;13.13;;;10.00;;
10603;SDS011;5349;41.554;23.274;2023-04-07T01:09:34;12.60;;;10.47;;
10603;SDS011;5349;41.554;23.274;2023-04-07T01:12:09;11.77;;;10.30;;
10603;SDS011;5349;41.554;23.274;2023-04-07T01:14:43;12.03;;;10.40;;
10603;SDS011;5349;41.554;23.274;2023-04-07T01:17:15;11.50;;;9.27;;
10603;SDS011;5349;41.554;23.274;2023-04-07T01:19:46;13.03;;;10.43;;
10603;SDS011;5349;41.554;23.274;2023-04-07T01:22:16;12.57;;;10.57;;
10603;SDS011;5349;41.554;23.274;2023-04-07T01:24:59;12.63;;;9.53;;
10603;SDS011;5349;41.554;23.274;2023-04-07T01:27:41;12.57;;;9.80;;
10603;SDS011;5349;41.554;23.274;2023-04-07T01:30:15;14.30;;;10.57;;
10603;SDS011;5349;41.554;23.274;2023-04-07T01:32:44;14.80;;;10.20;;
10603;SDS011;5349;41.554;23.274;2023-04-07T01:35:15;11.87;;;10.67;;
10603;SDS011;5349;41.554;23.274;2023-04-07T01:37:43;15.73;;;10.37;;
10603;SDS011;5349;41.554;23.274;2023-04-07T01:40:13;15.43;;;10.83;;
10603;SDS011;5349;41.554;23.274;2023-04-07T01:42:41;11.37;;;10.17;;
10603;SDS011;5349;41.554;23.274;2023-04-07T01:45:10;12.23;;;10.10;;
10603;SDS011;5349;41.554;23.274;2023-04-07T01:47:38;11.33;;;10.13;;
10603;SDS011;5349;41.554;23.274;2023-04-07T01:50:06;12.10;;;9.97;;
10603;SDS011;5349;41.554;23.274;2023-04-07T01:52:34;15.27;;;11.60;;
10603;SDS011;5349;41.554;23.274;2023-04-07T01:55:02;15.73;;;11.63;;
10603;SDS011;5349;41.554;23.274;2023-04-07T01:57:29;13.97;;;10.90;;
10603;SDS011;5349;41.554;23.274;2023-04-07T01:59:56;12.60;;;10.60;;
10603;SDS011;5349;41.554;23.274;2023-04-07T02:02:23;14.27;;;10.23;;
10603;SDS011;5349;41.554;23.274;2023-04-07T02:04:53;13.60;;;10.03;;
10603;SDS011;5349;41.554;23.274;2023-04-07T02:07:23;14.67;;;10.47;;
10603;SDS011;5349;41.554;23.274;2023-04-07T02:09:55;14.80;;;10.53;;
10603;SDS011;5349;41.554;23.274;2023-04-07T02:12:25;15.47;;;11.20;;
10603;SDS011;5349;41.554;23.274;2023-04-07T02:14:54;14.17;;;10.67;;
10603;SDS011;5349;41.554;23.274;2023-04-07T02:17:21;14.47;;;10.80;;
10603;SDS011;5349;41.554;23.274;2023-04-07T02:19:51;12.90;;;10.43;;
10603;SDS011;5349;41.554;23.274;2023-04-07T02:22:19;13.93;;;10.40;;
10603;SDS011;5349;41.554;23.274;2023-04-07T02:24:46;13.37;;;11.10;;
10603;SDS011;5349;41.554;23.274;2023-04-07T02:27:12;12.13;;;10.33;;
10603;SDS011;5349;41.554;23.274;2023-04-07T02:29:39;11.63;;;10.20;;
10603;SDS011;5349;41.554;23.274;2023-04-07T02:32:06;14.37;;;10.53;;
10603;SDS011;5349;41.554;23.274;2023-04-07T02:34:33;11.97;;;10.23;;
10603;SDS011;5349;41.554;23.274;2023-04-07T02:37:01;14.03;;;10.60;;
10603;SDS011;5349;41.554;23.274;2023-04-07T02:39:28;11.90;;;10.37;;
10603;SDS011;5349;41.554;23.274;2023-04-07T02:41:55;13.30;;;10.90;;
10603;SDS011;5349;41.554;23.274;2023-04-07T02:44:22;13.77;;;10.67;;
10603;SDS011;5349;41.554;23.274;2023-04-07T02:46:49;13.30;;;10.67;;
10603;SDS011;5349;41.554;23.274;2023-04-07T02:49:16;14.67;;;11.60;;
10603;SDS011;5349;41.554;23.274;2023-04-07T02:51:42;15.43;;;10.67;;
10603;SDS011;5349;41.554;23.274;2023-04-07T02:54:12;13.40;;;10.67;;
10603;SDS011;5349;41.554;23.274;2023-04-07T02:56:39;12.77;;;10.20;;
10603;SDS011;5349;41.554;23.274;2023-04-07T02:59:05;13.67;;;10.50;;
10603;SDS011;5349;41.554;23.274;2023-04-07T03:01:32;12.73;;;10.43;;
10603;SDS011;5349;41.554;23.274;2023-04-07T03:04:00;12.03;;;9.70;;
10603;SDS011;5349;41.554;23.274;2023-04-07T03:06:27;13.10;;;9.90;;
10603;SDS011;5349;41.554;23.274;2023-04-07T03:08:54;15.67;;;11.23;;
10603;SDS011;5349;41.554;23.274;2023-04-07T03:11:22;96.13;;;42.17;;
10603;SDS011;5349;41.554;23.274;2023-04-07T03:13:49;30.07;;;19.83;;
10603;SDS011;5349;41.554;23.274;2023-04-07T03:16:15;15.37;;;11.03;;
10603;SDS011;5349;41.554;23.274;2023-04-07T03:18:42;14.57;;;10.47;;
10603;SDS011;5349;41.554;23.274;2023-04-07T03:21:09;13.53;;;10.63;;
10603;SDS011;5349;41.554;23.274;2023-04-07T03:23:36;13.47;;;10.27;;
10603;SDS011;5349;41.554;23.274;2023-04-07T03:26:03;13.57;;;10.87;;
10603;SDS011;5349;41.554;23.274;2023-04-07T03:28:31;13.77;;;10.70;;
10603;SDS011;5349;41.554;23.274;2023-04-07T03:30:58;22.60;;;16.83;;
10603;SDS011;5349;41.554;23.274;2023-04-07T03:33:25;14.03;;;11.40;;
10603;SDS011;5349;41.554;23.274;2023-04-07T03:35:52;18.13;;;11.30;;
10603;SDS011;5349;41.554;23.274;2023-04-07T03:38:19;19.63;;;15.77;;
10603;SDS011;5349;41.554;23.274;2023-04-07T03:40:46;14.13;;;11.30;;
10603;SDS011;5349;41.554;23.274;2023-04-07T03:43:13;16.93;;;11.50;;
10603;SDS011;5349;41.554;23.274;2023-04-07T03:45:41;14.57;;;11.00;;
10603;SDS011;5349;41.554;23.274;2023-04-07T03:48:08;33.93;;;24.57;;
10603;SDS011;5349;41.554;23.274;2023-04-07T03:50:36;20.57;;;17.63;;
10603;SDS011;5349;41.554;23.274;2023-04-07T03:53:03;30.97;;;20.17;;
10603;SDS011;5349;41.554;23.274;2023-04-07T03:55:30;18.50;;;13.10;;
10603;SDS011;5349;41.554;23.274;2023-04-07T03:57:57;14.33;;;11.20;;
10603;SDS011;5349;41.554;23.274;2023-04-07T04:00:24;19.53;;;15.47;;
10603;SDS011;5349;41.554;23.274;2023-04-07T04:02:52;16.90;;;13.03;;
10603;SDS011;5349;41.554;23.274;2023-04-07T04:05:19;16.67;;;12.60;;
10603;SDS011;5349;41.554;23.274;2023-04-07T04:07:46;18.80;;;14.70;;
10603;SDS011;5349;41.554;23.274;2023-04-07T04:10:13;23.83;;;19.83;;
10603;SDS011;5349;41.554;23.274;2023-04-07T04:12:40;21.53;;;14.27;;
10603;SDS011;5349;41.554;23.274;2023-04-07T04:15:07;17.93;;;13.60;;
10603;SDS011;5349;41.554;23.274;2023-04-07T04:17:35;22.47;;;17.87;;
10603;SDS011;5349;41.554;23.274;2023-04-07T04:20:03;21.20;;;14.80;;
10603;SDS011;5349;41.554;23.274;2023-04-07T04:22:31;20.73;;;15.57;;
10603;SDS011;5349;41.554;23.274;2023-04-07T04:24:58;21.93;;;16.00;;
10603;SDS011;5349;41.554;23.274;2023-04-07T04:27:25;31.40;;;20.80;;
10603;SDS011;5349;41.554;23.274;2023-04-07T04:29:52;21.30;;;16.67;;
10603;SDS011;5349;41.554;23.274;2023-04-07T04:32:19;17.70;;;14.17;;
10603;SDS011;5349;41.554;23.274;2023-04-07T04:34:46;25.83;;;18.77;;
10603;SDS011;5349;41.554;23.274;2023-04-07T04:37:14;17.17;;;14.20;;
10603;SDS011;5349;41.554;23.274;2023-04-07T04:39:41;19.60;;;14.07;;
10603;SDS011;5349;41.554;23.274;2023-04-07T04:42:08;20.43;;;14.23;;
10603;SDS011;5349;41.554;23.274;2023-04-07T04:44:35;15.73;;;12.43;;
10603;SDS011;5349;41.554;23.274;2023-04-07T04:47:02;16.43;;;13.30;;
10603;SDS011;5349;41.554;23.274;2023-04-07T04:49:29;19.40;;;14.57;;
10603;SDS011;5349;41.554;23.274;2023-04-07T04:51:55;20.23;;;15.33;;
10603;SDS011;5349;41.554;23.274;2023-04-07T04:54:24;23.33;;;16.80;;
10603;SDS011;5349;41.554;23.274;2023-04-07T04:56:50;19.30;;;15.00;;
10603;SDS011;5349;41.554;23.274;2023-04-07T04:59:17;22.37;;;17.60;;
10603;SDS011;5349;41.554;23.274;2023-04-07T05:01:44;16.67;;;12.63;;
10603;SDS011;5349;41.554;23.274;2023-04-07T05:04:11;18.73;;;15.73;;
10603;SDS011;5349;41.554;23.274;2023-04-07T05:06:37;13.23;;;10.30;;
10603;SDS011;5349;41.554;23.274;2023-04-07T05:09:04;22.43;;;16.83;;
10603;SDS011;5349;41.554;23.274;2023-04-07T05:11:32;19.20;;;15.83;;
10603;SDS011;5349;41.554;23.274;2023-04-07T05:13:59;24.47;;;19.30;;
10603;SDS011;5349;41.554;23.274;2023-04-07T05:16:26;16.70;;;13.67;;
10603;SDS011;5349;41.554;23.274;2023-04-07T05:18:53;18.17;;;14.23;;
10603;SDS011;5349;41.554;23.274;2023-04-07T05:21:19;16.17;;;13.17;;
10603;SDS011;5349;41.554;23.274;2023-04-07T05:23:46;24.87;;;15.40;;
10603;SDS011;5349;41.554;23.274;2023-04-07T05:26:13;18.23;;;12.67;;
10603;SDS011;5349;41.554;23.274;2023-04-07T05:28:41;30.97;;;15.87;;
10603;SDS011;5349;41.554;23.274;2023-04-07T05:31:08;22.80;;;13.97;;
10603;SDS011;5349;41.554;23.274;2023-04-07T05:33:35;21.87;;;13.53;;
10603;SDS011;5349;41.554;23.274;2023-04-07T05:36:02;15.60;;;12.13;;
10603;SDS011;5349;41.554;23.274;2023-04-07T05:38:29;18.07;;;12.60;;
10603;SDS011;5349;41.554;23.274;2023-04-07T05:40:56;20.23;;;13.53;;
10603;SDS011;5349;41.554;23.274;2023-04-07T05:43:23;16.00;;;12.63;;
10603;SDS011;5349;41.554;23.274;2023-04-07T05:45:51;17.37;;;14.60;;
10603;SDS011;5349;41.554;23.274;2023-04-07T05:48:17;17.60;;;13.17;;
10603;SDS011;5349;41.554;23.274;2023-04-07T05:50:44;24.67;;;20.97;;
10603;SDS011;5349;41.554;23.274;2023-04-07T05:53:11;15.60;;;12.33;;
10603;SDS011;5349;41.554;23.274;2023-04-07T05:55:40;20.20;;;17.43;;
10603;SDS011;5349;41.554;23.274;2023-04-07T05:58:07;16.60;;;12.53;;
10603;SDS011;5349;41.554;23.274;2023-04-07T06:00:34;19.27;;;13.97;;
10603;SDS011;5349;41.554;23.274;2023-04-07T06:03:02;14.90;;;10.70;;
10603;SDS011;5349;41.554;23.274;2023-04-07T06:05:29;14.47;;;10.73;;
10603;SDS011;5349;41.554;23.274;2023-04-07T06:07:56;11.20;;;10.07;;
10603;SDS011;5349;41.554;23.274;2023-04-07T06:10:23;13.47;;;9.83;;
10603;SDS011;5349;41.554;23.274;2023-04-07T06:12:50;13.90;;;10.47;;
10603;SDS011;5349;41.554;23.274;2023-04-07T06:15:17;22.33;;;17.00;;
10603;SDS011;5349;41.554;23.274;2023-04-07T06:17:44;25.10;;;17.70;;
10603;SDS011;5349;41.554;23.274;2023-04-07T06:20:12;25.77;;;18.93;;
10603;SDS011;5349;41.554;23.274;2023-04-07T06:22:39;21.57;;;17.60;;
10603;SDS011;5349;41.554;23.274;2023-04-07T06:25:06;28.47;;;22.27;;
10603;SDS011;5349;41.554;23.274;2023-04-07T06:27:34;33.93;;;23.93;;
10603;SDS011;5349;41.554;23.274;2023-04-07T06:30:01;63.00;;;36.57;;
10603;SDS011;5349;41.554;23.274;2023-04-07T06:32:28;32.93;;;23.10;;
10603;SDS011;5349;41.554;23.274;2023-04-07T06:34:54;36.93;;;27.50;;
10603;SDS011;5349;41.554;23.274;2023-04-07T06:37:23;53.43;;;31.73;;
10603;SDS011;5349;41.554;23.274;2023-04-07T06:39:50;37.00;;;26.07;;
10603;SDS011;5349;41.554;23.274;2023-04-07T06:42:17;28.53;;;21.73;;
10603;SDS011;5349;41.554;23.274;2023-04-07T06:44:43;28.60;;;19.50;;
10603;SDS011;5349;41.554;23.274;2023-04-07T06:47:10;24.73;;;18.90;;
10603;SDS011;5349;41.554;23.274;2023-04-07T06:49:37;20.17;;;17.47;;
10603;SDS011;5349;41.554;23.274;2023-04-07T06:52:04;21.97;;;17.83;;
10603;SDS011;5349;41.554;23.274;2023-04-07T06:54:32;20.30;;;16.00;;
10603;SDS011;5349;41.554;23.274;2023-04-07T06:56:59;23.20;;;18.20;;
10603;SDS011;5349;41.554;23.274;2023-04-07T06:59:26;16.53;;;13.50;;
10603;SDS011;5349;41.554;23.274;2023-04-07T07:01:53;14.83;;;12.13;;
10603;SDS011;5349;41.554;23.274;2023-04-07T07:04:20;14.33;;;11.10;;
10603;SDS011;5349;41.554;23.274;2023-04-07T07:06:47;14.53;;;10.40;;
10603;SDS011;5349;41.554;23.274;2023-04-07T07:09:13;13.23;;;10.30;;
10603;SDS011;5349;41.554;23.274;2023-04-07T07:11:42;23.40;;;16.30;;
10603;SDS011;5349;41.554;23.274;2023-04-07T07:14:08;16.93;;;12.67;;
10603;SDS011;5349;41.554;23.274;2023-04-07T07:16:35;20.37;;;15.60;;
10603;SDS011;5349;41.554;23.274;2023-04-07T07:19:02;43.47;;;26.93;;
10603;SDS011;5349;41.554;23.274;2023-04-07T07:21:29;26.77;;;18.40;;
10603;SDS011;5349;41.554;23.274;2023-04-07T07:23:56;11.97;;;10.40;;
10603;SDS011;5349;41.554;23.274;2023-04-07T07:26:23;12.65;;;10.10;;
10603;SDS011;5349;41.554;23.274;2023-04-07T07:28:51;20.57;;;15.37;;
10603;SDS011;5349;41.554;23.274;2023-04-07T07:31:18;15.40;;;12.60;;
10603;SDS011;5349;41.554;23.274;2023-04-07T07:33:45;12.60;;;10.47;;
10603;SDS011;5349;41.554;23.274;2023-04-07T07:36:13;10.07;;;8.97;;
10603;SDS011;5349;41.554;23.274;2023-04-07T07:38:40;12.00;;;9.70;;
10603;SDS011;5349;41.554;23.274;2023-04-07T07:41:07;12.53;;;9.10;;
10603;SDS011;5349;41.554;23.274;2023-04-07T07:43:34;11.57;;;8.73;;
10603;SDS011;5349;41.554;23.274;2023-04-07T07:46:03;9.60;;;8.07;;
10603;SDS011;5349;41.554;23.274;2023-04-07T07:48:29;10.40;;;8.57;;
10603;SDS011;5349;41.554;23.274;2023-04-07T07:50:56;10.00;;;8.57;;
10603;SDS011;5349;41.554;23.274;2023-04-07T07:53:23;9.87;;;8.53;;
10603;SDS011;5349;41.554;23.274;2023-04-07T07:55:50;11.27;;;8.20;;
10603;SDS011;5349;41.554;23.274;2023-04-07T07:58:17;9.00;;;7.70;;
10603;SDS011;5349;41.554;23.274;2023-04-07T08:00:43;12.30;;;8.23;;
10603;SDS011;5349;41.554;23.274;2023-04-07T08:03:12;8.67;;;7.73;;
10603;SDS011;5349;41.554;23.274;2023-04-07T08:05:39;10.43;;;8.10;;
10603;SDS011;5349;41.554;23.274;2023-04-07T08:08:06;11.97;;;8.57;;
10603;SDS011;5349;41.554;23.274;2023-04-07T08:10:33;11.70;;;8.30;;
10603;SDS011;5349;41.554;23.274;2023-04-07T08:13:00;15.10;;;10.03;;
10603;SDS011;5349;41.554;23.274;2023-04-07T08:15:27;8.73;;;7.83;;
10603;SDS011;5349;41.554;23.274;2023-04-07T08:17:54;9.13;;;8.07;;
10603;SDS011;5349;41.554;23.274;2023-04-07T08:20:22;10.10;;;7.87;;
10603;SDS011;5349;41.554;23.274;2023-04-07T08:22:49;8.70;;;7.72;;
10603;SDS011;5349;41.554;23.274;2023-04-07T08:25:16;9.17;;;7.50;;
10603;SDS011;5349;41.554;23.274;2023-04-07T08:27:42;9.27;;;8.27;;
10603;SDS011;5349;41.554;23.274;2023-04-07T08:30:09;8.00;;;7.13;;
10603;SDS011;5349;41.554;23.274;2023-04-07T08:32:37;11.37;;;7.37;;
10603;SDS011;5349;41.554;23.274;2023-04-07T08:35:05;8.47;;;7.30;;
10603;SDS011;5349;41.554;23.274;2023-04-07T08:37:34;10.00;;;7.38;;
10603;SDS011;5349;41.554;23.274;2023-04-07T08:40:02;8.40;;;7.47;;
10603;SDS011;5349;41.554;23.274;2023-04-07T08:42:30;9.13;;;7.03;;
10603;SDS011;5349;41.554;23.274;2023-04-07T08:45:04;9.13;;;7.67;;
10603;SDS011;5349;41.554;23.274;2023-04-07T08:47:34;9.23;;;7.20;;
10603;SDS011;5349;41.554;23.274;2023-04-07T08:50:02;9.20;;;6.77;;
10603;SDS011;5349;41.554;23.274;2023-04-07T08:52:32;8.30;;;6.43;;
10603;SDS011;5349;41.554;23.274;2023-04-07T08:55:05;9.00;;;7.37;;
10603;SDS011;5349;41.554;23.274;2023-04-07T08:57:33;9.27;;;7.70;;
10603;SDS011;5349;41.554;23.274;2023-04-07T09:00:02;9.60;;;8.40;;
10603;SDS011;5349;41.554;23.274;2023-04-07T09:02:30;9.35;;;7.50;;
10603;SDS011;5349;41.554;23.274;2023-04-07T09:04:59;9.65;;;7.20;;
10603;SDS011;5349;41.554;23.274;2023-04-07T09:07:26;9.73;;;8.82;;
10603;SDS011;5349;41.554;23.274;2023-04-07T09:09:55;9.77;;;7.20;;
10603;SDS011;5349;41.554;23.274;2023-04-07T09:12:22;9.45;;;7.43;;
10603;SDS011;5349;41.554;23.274;2023-04-07T09:14:49;9.45;;;7.13;;
10603;SDS011;5349;41.554;23.274;2023-04-07T09:17:16;8.98;;;7.80;;
10603;SDS011;5349;41.554;23.274;2023-04-07T09:19:43;8.13;;;7.30;;
10603;SDS011;5349;41.554;23.274;2023-04-07T09:22:09;8.20;;;6.57;;
10603;SDS011;5349;41.554;23.274;2023-04-07T09:24:38;7.85;;;6.80;;
10603;SDS011;5349;41.554;23.274;2023-04-07T09:27:11;7.50;;;6.70;;
10603;SDS011;5349;41.554;23.274;2023-04-07T09:29:39;8.32;;;6.82;;
10603;SDS011;5349;41.554;23.274;2023-04-07T09:32:07;11.13;;;7.70;;
10603;SDS011;5349;41.554;23.274;2023-04-07T09:34:35;14.27;;;11.35;;
10603;SDS011;5349;41.554;23.274;2023-04-07T09:37:03;8.60;;;7.50;;
10603;SDS011;5349;41.554;23.274;2023-04-07T09:39:31;7.97;;;6.72;;
10603;SDS011;5349;41.554;23.274;2023-04-07T09:41:58;11.07;;;7.90;;
10603;SDS011;5349;41.554;23.274;2023-04-07T09:44:38;10.13;;;8.05;;
10603;SDS011;5349;41.554;23.274;2023-04-07T09:47:06;9.02;;;6.88;;
